Time,TemperatureF,DewpointF,PressureIn,WindDirection,WindDirectionDegrees,WindSpeedMPH,WindSpeedGustMPH,Humidity,HourlyPrecipIn,Conditions,Clouds,dailyrainin,SoftwareType,DateUTC
2013-01-30 00:01:00,58.1,58.1,29.55,SSE,167,0.0,0.0,100,0.04,RA,,0.00,WeatherDisplay:10.37,2013-01-30 06:01:00,
2013-01-30 00:06:00,58.1,58.1,29.55,SW,223,0.0,0.0,100,0.04,RA,,0.00,WeatherDisplay:10.37,2013-01-30 06:06:00,
2013-01-30 00:11:00,57.9,57.9,29.55,North,0,0.0,0.0,100,0.04,CLR,,0.00,WeatherDisplay:10.37,2013-01-30 06:11:00,
2013-01-30 00:16:00,57.9,57.9,29.55,WSW,248,0.0,0.0,100,0.04,CLR,,0.00,WeatherDisplay:10.37,2013-01-30 06:16:00,
2013-01-30 00:21:00,57.9,57.9,29.55,North,0,0.0,0.0,100,0.04,CLR,,0.00,WeatherDisplay:10.37,2013-01-30 06:21:00,
2013-01-30 00:26:00,57.9,57.9,29.55,North,0,0.0,0.0,100,0.04,CLR,,0.00,WeatherDisplay:10.37,2013-01-30 06:26:00,
2013-01-30 00:31:00,57.9,57.9,29.55,North,0,0.0,0.0,100,0.04,CLR,,0.00,WeatherDisplay:10.37,2013-01-30 06:31:00,
2013-01-30 00:36:00,57.9,57.9,29.55,North,0,0.0,0.0,100,0.04,CLR,,0.00,WeatherDisplay:10.37,2013-01-30 06:36:00,
2013-01-30 00:41:00,58.1,58.1,29.55,WNW,298,0.0,0.0,100,0.04,CLR,,0.00,WeatherDisplay:10.37,2013-01-30 06:41:00,
2013-01-30 00:46:00,58.1,58.1,29.57,WNW,297,0.0,0.0,100,0.00,CLR,,0.00,WeatherDisplay:10.37,2013-01-30 06:46:00,
2013-01-30 00:51:00,58.1,58.1,29.57,West,270,0.0,0.0,100,0.00,CLR,,0.00,WeatherDisplay:10.37,2013-01-30 06:51:00,
2013-01-30 00:56:00,58.1,58.1,29.57,West,277,0.0,0.0,100,0.00,CLR,,0.00,WeatherDisplay:10.37,2013-01-30 06:56:00,
2013-01-30 01:01:00,58.1,58.1,29.57,West,270,0.0,0.0,100,0.00,CLR,,0.00,WeatherDisplay:10.37,2013-01-30 07:01:00,
2013-01-30 01:06:00,58.1,58.1,29.57,WNW,302,0.0,0.0,100,0.00,CLR,,0.00,WeatherDisplay:10.37,2013-01-30 07:06:00,
2013-01-30 01:11:00,58.1,58.1,29.57,WNW,302,0.0,0.0,100,0.04,RA,,0.04,WeatherDisplay:10.37,2013-01-30 07:11:00,
2013-01-30 01:16:00,58.1,58.1,29.55,WNW,302,0.0,0.0,100,0.04,RA,,0.04,WeatherDisplay:10.37,2013-01-30 07:16:00,
2013-01-30 01:21:00,58.1,58.1,29.55,WNW,302,0.0,0.0,100,0.04,,,0.04,WeatherDisplay:10.37,2013-01-30 07:21:00,
2013-01-30 01:26:00,58.1,58.1,29.55,WNW,302,0.0,0.0,100,0.04,CLR,,0.04,WeatherDisplay:10.37,2013-01-30 07:26:00,
2013-01-30 01:31:00,57.9,57.9,29.55,WNW,302,0.0,0.0,100,0.04,CLR,,0.04,WeatherDisplay:10.37,2013-01-30 07:31:00,
2013-01-30 01:36:00,57.9,57.9,29.55,WNW,302,0.0,0.0,100,0.04,CLR,,0.04,WeatherDisplay:10.37,2013-01-30 07:36:00,
2013-01-30 01:41:00,57.7,57.7,29.55,WNW,302,0.0,0.0,100,0.04,CLR,,0.04,WeatherDisplay:10.37,2013-01-30 07:41:00,
2013-01-30 01:46:00,57.7,57.7,29.49,WNW,302,0.0,0.0,100,0.04,CLR,,0.04,WeatherDisplay:10.37,2013-01-30 07:46:00,
2013-01-30 01:51:00,57.7,57.7,29.49,WNW,302,0.0,0.0,100,0.04,CLR,,0.04,WeatherDisplay:10.37,2013-01-30 07:51:00,
2013-01-30 01:56:00,57.7,57.7,29.49,WNW,302,0.0,0.0,100,0.04,CLR,,0.04,WeatherDisplay:10.37,2013-01-30 07:56:00,
2013-01-30 02:01:00,57.7,57.7,29.46,SE,137,0.0,0.0,100,0.04,CLR,,0.04,WeatherDisplay:10.37,2013-01-30 08:01:00,
2013-01-30 02:07:00,57.7,57.7,29.46,SSE,160,0.0,0.0,100,0.04,CLR,,0.04,WeatherDisplay:10.37,2013-01-30 08:07:00,
2013-01-30 02:12:00,57.7,57.7,29.46,SE,137,0.0,0.0,100,0.00,CLR,,0.04,WeatherDisplay:10.37,2013-01-30 08:12:00,
2013-01-30 02:17:00,57.7,57.7,29.49,SE,145,0.0,0.0,100,0.00,CLR,,0.04,WeatherDisplay:10.37,2013-01-30 08:17:00,
2013-01-30 02:22:00,57.6,57.6,29.49,SE,146,0.0,0.0,100,0.00,CLR,,0.04,WeatherDisplay:10.37,2013-01-30 08:22:00,
2013-01-30 02:27:00,57.6,57.6,29.49,SSE,148,0.0,0.0,100,0.00,CLR,,0.04,WeatherDisplay:10.37,2013-01-30 08:27:00,
2013-01-30 02:32:00,57.6,57.6,29.49,SE,145,0.0,0.0,100,0.00,CLR,,0.04,WeatherDisplay:10.37,2013-01-30 08:32:00,
2013-01-30 02:37:00,57.6,57.6,29.49,SSE,149,0.0,0.0,100,0.00,CLR,,0.04,WeatherDisplay:10.37,2013-01-30 08:37:00,
2013-01-30 02:42:00,57.6,57.6,29.49,SSE,148,0.0,3.5,100,0.00,CLR,,0.04,WeatherDisplay:10.37,2013-01-30 08:42:00,
2013-01-30 02:47:00,57.7,57.7,29.49,South,172,0.0,3.5,100,0.00,CLR,,0.04,WeatherDisplay:10.37,2013-01-30 08:47:00,
2013-01-30 02:52:00,57.7,57.7,29.49,SSE,155,0.0,2.3,100,0.00,CLR,,0.04,WeatherDisplay:10.37,2013-01-30 08:52:00,
2013-01-30 02:57:00,57.7,57.7,29.49,South,181,0.0,0.0,100,0.00,CLR,,0.04,WeatherDisplay:10.37,2013-01-30 08:57:00,
2013-01-30 03:02:00,57.7,57.7,29.49,SSE,159,0.0,2.3,100,0.00,CLR,,0.04,WeatherDisplay:10.37,2013-01-30 09:02:00,
2013-01-30 03:07:00,57.9,57.9,29.49,SSE,152,0.0,0.0,100,0.00,CLR,,0.04,WeatherDisplay:10.37,2013-01-30 09:07:00,
2013-01-30 03:12:00,57.9,57.9,29.49,SSW,192,3.6,5.8,100,0.00,CLR,,0.04,WeatherDisplay:10.37,2013-01-30 09:12:00,
2013-01-30 03:17:00,57.9,57.9,29.49,South,185,2.7,3.5,100,0.00,CLR,,0.04,WeatherDisplay:10.37,2013-01-30 09:17:00,
2013-01-30 03:22:00,57.9,57.9,29.49,SSW,197,2.7,4.6,100,0.00,CLR,,0.04,WeatherDisplay:10.37,2013-01-30 09:22:00,
2013-01-30 03:28:00,57.9,57.9,29.49,SW,215,0.0,3.5,100,0.00,CLR,,0.04,WeatherDisplay:10.37,2013-01-30 09:28:00,
2013-01-30 03:33:00,57.9,57.9,29.49,South,184,0.0,3.5,100,0.00,CLR,,0.04,WeatherDisplay:10.37,2013-01-30 09:33:00,
2013-01-30 03:38:00,57.9,57.9,29.49,SSE,166,4.0,5.8,100,0.00,CLR,,0.04,WeatherDisplay:10.37,2013-01-30 09:38:00,
2013-01-30 03:43:00,57.9,57.9,29.49,SE,146,4.9,8.1,100,0.00,CLR,,0.04,WeatherDisplay:10.37,2013-01-30 09:43:00,
2013-01-30 03:49:00,57.9,57.9,29.51,SSE,157,3.6,4.6,100,0.00,CLR,,0.04,WeatherDisplay:10.37,2013-01-30 09:49:00,
2013-01-30 03:54:00,57.9,57.9,29.51,SE,139,3.1,5.8,100,0.00,CLR,,0.04,WeatherDisplay:10.37,2013-01-30 09:54:00,
2013-01-30 03:59:00,57.9,57.9,29.51,South,182,3.1,5.8,100,0.00,CLR,,0.04,WeatherDisplay:10.37,2013-01-30 09:59:00,
2013-01-30 04:04:00,57.9,57.9,29.49,SSE,167,0.0,5.4,100,0.00,CLR,,0.04,WeatherDisplay:10.37,2013-01-30 10:04:00,
2013-01-30 04:09:00,57.9,57.9,29.49,South,169,0.0,2.3,100,0.00,CLR,,0.04,WeatherDisplay:10.37,2013-01-30 10:09:00,
2013-01-30 04:14:00,57.9,57.9,29.49,SSE,154,0.0,2.3,100,0.00,CLR,,0.04,WeatherDisplay:10.37,2013-01-30 10:14:00,
2013-01-30 04:19:00,57.9,57.9,29.49,South,170,3.1,5.8,100,0.00,CLR,,0.04,WeatherDisplay:10.37,2013-01-30 10:19:00,
2013-01-30 04:24:00,57.9,57.9,29.49,SSW,203,4.0,5.8,100,0.00,CLR,,0.04,WeatherDisplay:10.37,2013-01-30 10:24:00,
2013-01-30 04:29:00,57.9,57.9,29.49,SW,225,2.2,4.6,100,0.00,CLR,,0.04,WeatherDisplay:10.37,2013-01-30 10:29:00,
2013-01-30 04:34:00,57.9,57.9,29.49,South,175,0.0,0.0,100,0.00,CLR,,0.04,WeatherDisplay:10.37,2013-01-30 10:34:00,
2013-01-30 04:39:00,57.9,57.9,29.49,SSW,197,0.0,3.5,100,0.00,CLR,,0.04,WeatherDisplay:10.37,2013-01-30 10:39:00,
2013-01-30 04:44:00,57.9,57.9,29.49,SSE,163,4.0,5.8,100,0.00,CLR,,0.04,WeatherDisplay:10.37,2013-01-30 10:44:00,
2013-01-30 04:49:00,57.9,57.9,29.49,SW,231,5.8,8.1,100,0.00,CLR,,0.04,WeatherDisplay:10.37,2013-01-30 10:49:00,
2013-01-30 04:54:00,57.9,57.9,29.49,SSW,192,2.7,3.5,100,0.00,CLR,,0.04,WeatherDisplay:10.37,2013-01-30 10:54:00,
2013-01-30 04:59:00,57.9,57.9,29.49,SSW,209,2.7,0.0,100,0.00,CLR,,0.04,WeatherDisplay:10.37,2013-01-30 10:59:00,
2013-01-30 05:04:00,57.7,57.7,29.49,South,185,4.5,5.8,100,0.00,CLR,,0.04,WeatherDisplay:10.37,2013-01-30 11:04:00,
2013-01-30 05:09:00,57.7,57.7,29.49,SSW,212,3.1,3.5,100,0.00,CLR,,0.04,WeatherDisplay:10.37,2013-01-30 11:09:00,
2013-01-30 05:14:00,57.7,57.7,29.49,WSW,244,0.0,0.0,100,0.00,CLR,,0.04,WeatherDisplay:10.37,2013-01-30 11:14:00,
2013-01-30 05:19:00,57.6,57.6,29.49,South,188,0.0,3.5,100,0.00,CLR,,0.04,WeatherDisplay:10.37,2013-01-30 11:19:00,
2013-01-30 05:24:00,57.6,57.6,29.49,SSW,196,2.2,4.6,100,0.00,CLR,,0.04,WeatherDisplay:10.37,2013-01-30 11:24:00,
2013-01-30 05:29:00,57.6,57.6,29.49,South,191,0.0,0.0,100,0.00,CLR,,0.04,WeatherDisplay:10.37,2013-01-30 11:29:00,
2013-01-30 05:34:00,57.6,57.6,29.49,WSW,239,3.6,5.8,100,0.00,CLR,,0.04,WeatherDisplay:10.37,2013-01-30 11:34:00,
2013-01-30 05:39:00,57.4,57.4,29.49,South,175,0.0,5.8,100,0.00,CLR,,0.04,WeatherDisplay:10.37,2013-01-30 11:39:00,
2013-01-30 05:44:00,57.2,57.2,29.49,SSW,202,3.1,3.5,100,0.00,CLR,,0.04,WeatherDisplay:10.37,2013-01-30 11:44:00,
2013-01-30 05:49:00,57.0,57.0,29.46,SW,221,0.0,3.5,100,0.00,CLR,,0.04,WeatherDisplay:10.37,2013-01-30 11:49:00,
2013-01-30 05:54:00,56.8,56.8,29.46,SW,215,3.6,4.6,100,0.00,CLR,,0.04,WeatherDisplay:10.37,2013-01-30 11:54:00,
2013-01-30 05:59:00,56.7,56.7,29.46,South,191,0.0,3.5,100,0.00,CLR,,0.04,WeatherDisplay:10.37,2013-01-30 11:59:00,
2013-01-30 06:04:00,56.7,56.7,29.46,SE,134,3.1,3.5,100,0.00,CLR,,0.04,WeatherDisplay:10.37,2013-01-30 12:04:00,
2013-01-30 06:09:00,56.5,56.5,29.46,SSE,162,4.9,9.2,100,0.00,CLR,,0.04,WeatherDisplay:10.37,2013-01-30 12:09:00,
2013-01-30 06:14:00,56.5,56.5,29.46,SW,219,2.2,5.8,100,0.00,CLR,,0.04,WeatherDisplay:10.37,2013-01-30 12:14:00,
2013-01-30 06:19:00,56.3,56.3,29.49,SSW,194,3.6,4.6,100,0.00,CLR,,0.04,WeatherDisplay:10.37,2013-01-30 12:19:00,
2013-01-30 06:24:00,56.3,56.3,29.49,SSW,207,2.7,4.6,100,0.00,CLR,,0.04,WeatherDisplay:10.37,2013-01-30 12:24:00,
2013-01-30 06:29:00,56.3,56.3,29.49,SW,232,0.0,0.0,100,0.00,CLR,,0.04,WeatherDisplay:10.37,2013-01-30 12:29:00,
2013-01-30 06:34:00,56.3,56.3,29.49,SSW,195,0.0,3.5,100,0.00,CLR,,0.04,WeatherDisplay:10.37,2013-01-30 12:34:00,
2013-01-30 06:39:00,56.3,56.3,29.49,SSW,212,3.1,5.8,100,0.00,CLR,,0.04,WeatherDisplay:10.37,2013-01-30 12:39:00,
2013-01-30 06:44:00,56.1,56.1,29.49,South,190,2.7,5.8,100,0.00,CLR,,0.04,WeatherDisplay:10.37,2013-01-30 12:44:00,
2013-01-30 06:49:00,56.1,56.1,29.46,SSW,198,4.0,5.8,100,0.00,CLR,,0.04,WeatherDisplay:10.37,2013-01-30 12:49:00,
2013-01-30 06:54:00,55.9,55.9,29.46,West,261,4.5,5.8,100,0.00,CLR,,0.04,WeatherDisplay:10.37,2013-01-30 12:54:00,
2013-01-30 06:59:00,55.9,55.9,29.46,South,175,2.7,6.7,100,0.00,CLR,,0.04,WeatherDisplay:10.37,2013-01-30 12:59:00,
2013-01-30 07:04:00,56.1,56.1,29.49,SSW,198,5.4,5.8,100,0.00,CLR,,0.04,WeatherDisplay:10.37,2013-01-30 13:04:00,
2013-01-30 07:09:00,56.1,56.1,29.49,SSW,196,0.0,3.5,100,0.00,CLR,,0.04,WeatherDisplay:10.37,2013-01-30 13:09:00,
2013-01-30 07:14:00,56.1,56.1,29.49,SSW,213,0.0,8.1,100,0.00,CLR,,0.04,WeatherDisplay:10.37,2013-01-30 13:14:00,
2013-01-30 07:19:00,55.9,55.9,29.49,WSW,247,2.7,2.7,100,0.00,CLR,,0.04,WeatherDisplay:10.37,2013-01-30 13:19:00,
2013-01-30 07:24:00,55.9,55.9,29.49,West,263,4.0,4.0,100,0.00,CLR,,0.04,WeatherDisplay:10.37,2013-01-30 13:24:00,
2013-01-30 07:29:00,56.1,56.1,29.49,SSW,198,2.2,3.5,100,0.00,CLR,,0.04,WeatherDisplay:10.37,2013-01-30 13:29:00,
2013-01-30 07:34:00,56.1,56.1,29.49,SSW,213,5.4,5.8,100,0.00,CLR,,0.04,WeatherDisplay:10.37,2013-01-30 13:34:00,
2013-01-30 07:40:00,56.1,56.1,29.49,SW,230,0.0,3.5,100,0.00,CLR,,0.04,WeatherDisplay:10.37,2013-01-30 13:40:00,
2013-01-30 07:45:00,56.3,56.3,29.49,WSW,250,4.0,8.1,100,0.00,CLR,,0.04,WeatherDisplay:10.37,2013-01-30 13:45:00,
2013-01-30 07:50:00,56.3,56.3,29.49,WSW,251,5.8,9.2,100,0.00,CLR,,0.04,WeatherDisplay:10.37,2013-01-30 13:50:00,
2013-01-30 07:55:00,56.3,56.3,29.49,West,261,3.1,4.9,100,0.00,CLR,,0.04,WeatherDisplay:10.37,2013-01-30 13:55:00,
2013-01-30 08:00:00,56.3,56.3,29.49,WSW,252,4.5,5.8,100,0.00,CLR,,0.04,WeatherDisplay:10.37,2013-01-30 14:00:00,
2013-01-30 08:05:00,56.3,56.3,29.49,SW,236,3.6,5.8,100,0.00,CLR,,0.04,WeatherDisplay:10.37,2013-01-30 14:05:00,
2013-01-30 08:10:00,56.3,56.3,29.49,WSW,239,2.2,5.8,100,0.00,CLR,,0.04,WeatherDisplay:10.37,2013-01-30 14:10:00,
2013-01-30 08:15:00,56.5,56.5,29.49,WSW,241,6.7,9.2,100,0.00,CLR,,0.04,WeatherDisplay:10.37,2013-01-30 14:15:00,
2013-01-30 08:20:00,56.5,56.5,29.49,West,271,4.9,5.8,100,0.00,CLR,,0.04,WeatherDisplay:10.37,2013-01-30 14:20:00,
2013-01-30 08:25:00,56.1,56.1,29.49,WNW,295,8.3,10.4,100,0.00,CLR,,0.04,WeatherDisplay:10.37,2013-01-30 14:25:00,
2013-01-30 08:31:00,55.0,55.0,29.51,NW,322,6.7,8.1,100,0.00,CLR,,0.04,WeatherDisplay:10.37,2013-01-30 14:31:00,
2013-01-30 08:36:00,54.7,54.7,29.51,WNW,286,7.2,8.1,100,0.00,CLR,,0.04,WeatherDisplay:10.37,2013-01-30 14:36:00,
2013-01-30 08:41:00,54.3,54.3,29.51,West,273,5.8,8.1,100,0.00,CLR,,0.04,WeatherDisplay:10.37,2013-01-30 14:41:00,
2013-01-30 08:46:00,54.1,54.1,29.51,West,270,7.2,8.1,100,0.00,CLR,,0.04,WeatherDisplay:10.37,2013-01-30 14:46:00,
2013-01-30 08:51:00,54.0,54.0,29.51,WNW,286,7.6,10.4,100,0.00,CLR,,0.04,WeatherDisplay:10.37,2013-01-30 14:51:00,
2013-01-30 08:56:00,53.6,53.6,29.51,WSW,252,6.7,12.7,100,0.00,CLR,,0.04,WeatherDisplay:10.37,2013-01-30 14:56:00,
2013-01-30 09:01:00,53.6,53.6,29.51,WNW,302,8.3,12.7,100,0.00,CLR,,0.04,WeatherDisplay:10.37,2013-01-30 15:01:00,
2013-01-30 09:06:00,53.2,53.2,29.51,NW,308,9.2,12.7,100,0.00,CLR,,0.04,WeatherDisplay:10.37,2013-01-30 15:06:00,
2013-01-30 09:11:00,52.9,52.9,29.51,NNW,329,8.0,9.2,100,0.00,CLR,,0.04,WeatherDisplay:10.37,2013-01-30 15:11:00,
2013-01-30 09:16:00,52.7,52.7,29.55,NW,309,8.0,11.5,100,0.00,CLR,,0.04,WeatherDisplay:10.37,2013-01-30 15:16:00,
2013-01-30 09:21:00,52.5,52.5,29.55,WNW,286,9.2,15.0,100,0.00,CLR,,0.04,WeatherDisplay:10.37,2013-01-30 15:21:00,
2013-01-30 09:26:00,52.2,52.2,29.55,NW,325,6.7,12.7,100,0.00,CLR,,0.04,WeatherDisplay:10.37,2013-01-30 15:26:00,
2013-01-30 09:31:00,52.2,52.2,29.55,North,0,8.7,9.6,100,0.00,CLR,,0.04,WeatherDisplay:10.37,2013-01-30 15:31:00,
2013-01-30 09:36:00,51.8,51.8,29.55,NW,312,10.1,12.7,100,0.00,CLR,,0.04,WeatherDisplay:10.37,2013-01-30 15:36:00,
2013-01-30 09:41:00,51.4,51.4,29.55,WNW,293,10.1,15.0,100,0.00,CLR,,0.04,WeatherDisplay:10.37,2013-01-30 15:41:00,
2013-01-30 09:46:00,51.3,51.3,29.55,NNW,329,10.5,17.3,100,0.00,CLR,,0.04,WeatherDisplay:10.37,2013-01-30 15:46:00,
2013-01-30 09:51:00,50.9,50.9,29.55,NW,321,10.5,10.5,100,0.00,CLR,,0.04,WeatherDisplay:10.37,2013-01-30 15:51:00,
2013-01-30 09:56:00,50.7,50.7,29.55,West,264,6.3,12.7,100,0.00,CLR,,0.04,WeatherDisplay:10.37,2013-01-30 15:56:00,
2013-01-30 10:01:00,50.7,50.7,29.57,North,1,8.0,9.2,100,0.00,CLR,,0.04,WeatherDisplay:10.37,2013-01-30 16:01:00,
2013-01-30 10:06:00,50.5,50.5,29.57,NW,315,9.6,12.7,100,0.00,CLR,,0.04,WeatherDisplay:10.37,2013-01-30 16:06:00,
2013-01-30 10:11:00,50.2,50.2,29.57,NW,306,9.2,15.0,100,0.00,CLR,,0.04,WeatherDisplay:10.37,2013-01-30 16:11:00,
2013-01-30 10:16:00,49.8,49.8,29.55,NW,306,7.6,9.6,100,0.00,CLR,,0.04,WeatherDisplay:10.37,2013-01-30 16:16:00,
2013-01-30 10:21:00,49.5,49.5,29.55,West,269,7.6,12.7,100,0.00,CLR,,0.04,WeatherDisplay:10.37,2013-01-30 16:21:00,
2013-01-30 10:26:00,49.1,49.1,29.55,West,269,7.6,9.6,100,0.00,CLR,,0.04,WeatherDisplay:10.37,2013-01-30 16:26:00,
2013-01-30 10:31:00,48.9,48.9,29.55,WNW,302,6.7,8.1,100,0.00,CLR,,0.04,WeatherDisplay:10.37,2013-01-30 16:31:00,
2013-01-30 10:36:00,48.7,48.7,29.55,NW,325,9.2,13.8,100,0.00,CLR,,0.04,WeatherDisplay:10.37,2013-01-30 16:36:00,
2013-01-30 10:41:00,48.6,48.6,29.55,NNW,330,10.1,12.7,100,0.00,CLR,,0.04,WeatherDisplay:10.37,2013-01-30 16:41:00,
2013-01-30 10:46:00,48.6,48.6,29.57,NNW,330,6.7,10.4,100,0.00,CLR,,0.04,WeatherDisplay:10.37,2013-01-30 16:46:00,
2013-01-30 19:17:00,34.0,21.1,29.90,NNW,328,6.3,8.1,59,0.00,CLR,,0.04,WeatherDisplay:10.37,2013-01-31 01:17:00,
2013-01-30 19:22:00,34.0,21.1,29.90,NNW,332,6.7,11.5,59,0.00,CLR,,0.04,WeatherDisplay:10.37,2013-01-31 01:22:00,
2013-01-30 19:27:00,34.0,21.1,29.90,NW,311,6.7,10.4,59,0.00,CLR,,0.04,WeatherDisplay:10.37,2013-01-31 01:27:00,
2013-01-30 19:32:00,34.0,21.1,29.90,NW,304,9.6,9.6,59,0.00,CLR,,0.04,WeatherDisplay:10.37,2013-01-31 01:32:00,
2013-01-30 19:37:00,34.0,21.1,29.90,NW,306,4.9,5.8,59,0.00,CLR,,0.04,WeatherDisplay:10.37,2013-01-31 01:37:00,
2013-01-30 19:42:00,34.0,21.1,29.90,West,278,4.9,10.4,59,0.00,CLR,,0.04,WeatherDisplay:10.37,2013-01-31 01:42:00,
2013-01-30 19:47:00,33.8,21.0,29.93,West,263,8.0,17.3,59,0.00,CLR,,0.04,WeatherDisplay:10.37,2013-01-31 01:47:00,
2013-01-30 19:52:00,33.6,20.4,29.93,WSW,246,12.7,17.3,58,0.00,CLR,,0.04,WeatherDisplay:10.37,2013-01-31 01:52:00,
2013-01-30 19:57:00,33.4,19.8,29.93,NW,313,7.2,10.9,57,0.00,CLR,,0.04,WeatherDisplay:10.37,2013-01-31 01:57:00,
2013-01-30 20:02:00,33.4,19.8,29.93,WNW,288,8.7,10.4,57,0.00,CLR,,0.04,WeatherDisplay:10.37,2013-01-31 02:02:00,
2013-01-30 20:07:00,33.3,19.7,29.93,NW,308,9.6,10.4,57,0.00,CLR,,0.04,WeatherDisplay:10.37,2013-01-31 02:07:00,
2013-01-30 20:12:00,33.3,19.7,29.93,NNW,327,4.9,8.1,57,0.00,CLR,,0.04,WeatherDisplay:10.37,2013-01-31 02:12:00,
2013-01-30 20:17:00,33.3,19.7,29.93,WNW,289,3.6,3.6,57,0.00,CLR,,0.04,WeatherDisplay:10.37,2013-01-31 02:17:00,
2013-01-30 20:22:00,33.3,20.1,29.93,NW,315,4.5,8.1,58,0.00,CLR,,0.04,WeatherDisplay:10.37,2013-01-31 02:22:00,
2013-01-30 20:27:00,33.4,20.2,29.93,NW,309,5.4,6.9,58,0.00,CLR,,0.04,WeatherDisplay:10.37,2013-01-31 02:27:00,
2013-01-30 20:32:00,33.4,20.6,29.93,NW,318,5.4,8.1,59,0.00,CLR,,0.04,WeatherDisplay:10.37,2013-01-31 02:32:00,
2013-01-30 20:37:00,33.4,20.2,29.93,West,275,7.6,9.2,58,0.00,CLR,,0.04,WeatherDisplay:10.37,2013-01-31 02:37:00,
2013-01-30 20:42:00,33.4,20.6,29.93,West,274,4.0,5.8,59,0.00,CLR,,0.04,WeatherDisplay:10.37,2013-01-31 02:42:00,
2013-01-30 20:47:00,33.6,20.8,29.93,West,280,3.6,4.6,59,0.00,CLR,,0.04,WeatherDisplay:10.37,2013-01-31 02:47:00,
2013-01-30 20:52:00,33.6,20.8,29.93,NW,326,10.1,15.0,59,0.00,CLR,,0.04,WeatherDisplay:10.37,2013-01-31 02:52:00,
2013-01-30 20:57:00,33.6,20.8,29.93,WSW,251,7.2,11.5,59,0.00,CLR,,0.04,WeatherDisplay:10.37,2013-01-31 02:57:00,
2013-01-30 21:02:00,33.4,20.2,29.96,West,276,7.6,9.2,58,0.00,CLR,,0.04,WeatherDisplay:10.37,2013-01-31 03:02:00,
2013-01-30 21:07:00,33.3,20.1,29.96,SSW,213,7.2,10.4,58,0.00,CLR,,0.04,WeatherDisplay:10.37,2013-01-31 03:07:00,
2013-01-30 21:12:00,33.3,20.1,29.96,NW,311,11.4,19.6,58,0.00,CLR,,0.04,WeatherDisplay:10.37,2013-01-31 03:12:00,
2013-01-30 21:17:00,33.1,19.5,29.96,West,280,9.2,12.7,57,0.00,CLR,,0.04,WeatherDisplay:10.37,2013-01-31 03:17:00,
2013-01-30 21:22:00,33.1,19.5,29.96,WSW,237,10.9,14.1,57,0.00,CLR,,0.04,WeatherDisplay:10.37,2013-01-31 03:22:00,
2013-01-30 21:27:00,33.1,19.5,29.96,WNW,292,6.7,10.4,57,0.00,CLR,,0.04,WeatherDisplay:10.37,2013-01-31 03:27:00,
2013-01-30 21:32:00,32.9,19.3,29.96,West,277,8.3,12.7,57,0.00,CLR,,0.04,WeatherDisplay:10.37,2013-01-31 03:32:00,
2013-01-30 21:37:00,32.9,19.3,29.96,WNW,292,9.6,12.7,57,0.00,CLR,,0.04,WeatherDisplay:10.37,2013-01-31 03:37:00,
2013-01-30 21:42:00,32.9,19.3,29.96,WSW,253,6.7,10.4,57,0.00,CLR,,0.04,WeatherDisplay:10.37,2013-01-31 03:42:00,
2013-01-30 21:47:00,32.7,19.1,29.96,NNW,330,6.7,8.1,57,0.00,CLR,,0.04,WeatherDisplay:10.37,2013-01-31 03:47:00,
2013-01-30 21:52:00,32.7,19.1,29.96,WNW,293,6.3,9.2,57,0.00,CLR,,0.04,WeatherDisplay:10.37,2013-01-31 03:52:00,
2013-01-30 21:57:00,32.7,19.1,29.96,WSW,254,4.9,9.2,57,0.00,CLR,,0.04,WeatherDisplay:10.37,2013-01-31 03:57:00,
2013-01-30 22:02:00,32.7,19.1,29.99,WNW,296,6.3,8.1,57,0.00,CLR,,0.04,WeatherDisplay:10.37,2013-01-31 04:02:00,
2013-01-30 22:07:00,32.7,19.6,29.99,WNW,296,5.8,10.1,58,0.00,CLR,,0.04,WeatherDisplay:10.37,2013-01-31 04:07:00,
2013-01-30 22:12:00,32.9,19.7,29.99,SW,233,8.7,11.5,58,0.00,CLR,,0.04,WeatherDisplay:10.37,2013-01-31 04:12:00,
2013-01-30 22:17:00,32.7,19.6,29.99,NW,312,4.9,6.3,58,0.00,CLR,,0.04,WeatherDisplay:10.37,2013-01-31 04:17:00,
2013-01-30 22:22:00,32.7,19.6,29.99,NNW,335,8.7,11.5,58,0.00,CLR,,0.04,WeatherDisplay:10.37,2013-01-31 04:22:00,
2013-01-30 22:27:00,32.7,19.1,29.99,NW,315,5.8,11.5,57,0.00,CLR,,0.04,WeatherDisplay:10.37,2013-01-31 04:27:00,
2013-01-30 22:32:00,32.7,19.1,29.99,NNW,330,6.3,8.1,57,0.00,CLR,,0.04,WeatherDisplay:10.37,2013-01-31 04:32:00,
2013-01-30 22:37:00,32.5,19.0,29.99,NNW,346,5.4,8.1,57,0.00,CLR,,0.04,WeatherDisplay:10.37,2013-01-31 04:37:00,
2013-01-30 22:42:00,32.5,19.0,29.99,WNW,299,6.7,10.4,57,0.00,CLR,,0.04,WeatherDisplay:10.37,2013-01-31 04:42:00,
2013-01-30 22:47:00,32.5,19.0,29.99,West,270,6.3,9.2,57,0.00,CLR,,0.04,WeatherDisplay:10.37,2013-01-31 04:47:00,
2013-01-30 22:52:00,32.7,19.6,29.99,West,272,4.9,6.3,58,0.00,CLR,,0.04,WeatherDisplay:10.37,2013-01-31 04:52:00,
2013-01-30 22:57:00,32.7,19.6,29.99,WNW,299,5.8,5.8,58,0.00,CLR,,0.04,WeatherDisplay:10.37,2013-01-31 04:57:00,
2013-01-30 23:00:00,32.7,19.6,29.99,NW,319,5.4,11.5,58,0.00,CLR,,0.04,WeatherDisplay:10.37,2013-01-31 05:00:00,
2013-01-30 23:01:00,32.7,19.6,29.99,NNW,335,5.8,11.5,58,0.00,CLR,,0.04,WeatherDisplay:10.37,2013-01-31 05:01:00,
2013-01-30 23:02:00,32.7,19.6,29.99,NNW,342,5.8,5.8,58,0.00,CLR,,0.04,WeatherDisplay:10.37,2013-01-31 05:02:00,
2013-01-30 23:07:00,32.5,19.0,29.99,North,357,8.0,10.4,57,0.00,CLR,,0.04,WeatherDisplay:10.37,2013-01-31 05:07:00,
2013-01-30 23:12:00,32.5,19.0,29.99,WNW,293,7.2,10.4,57,0.00,CLR,,0.04,WeatherDisplay:10.37,2013-01-31 05:12:00,
2013-01-30 23:17:00,32.5,19.0,29.99,NNW,336,4.0,8.1,57,0.00,CLR,,0.04,WeatherDisplay:10.37,2013-01-31 05:17:00,
2013-01-30 23:22:00,32.2,18.6,29.99,WSW,245,6.7,9.2,57,0.00,CLR,,0.04,WeatherDisplay:10.37,2013-01-31 05:22:00,
2013-01-30 23:27:00,32.0,18.9,29.99,NNW,327,5.4,9.2,58,0.00,CLR,,0.04,WeatherDisplay:10.37,2013-01-31 05:27:00,
2013-01-30 23:32:00,31.8,18.7,29.99,NNW,338,4.9,8.1,58,0.00,CLR,,0.04,WeatherDisplay:10.37,2013-01-31 05:32:00,
2013-01-30 23:37:00,31.5,18.4,29.99,West,265,4.9,5.8,58,0.00,CLR,,0.04,WeatherDisplay:10.37,2013-01-31 05:37:00,
2013-01-30 23:42:00,31.5,18.4,29.99,NW,325,4.0,5.8,58,0.00,CLR,,0.04,WeatherDisplay:10.37,2013-01-31 05:42:00,
2013-01-30 23:47:00,31.5,18.8,29.99,NW,313,3.6,6.3,59,0.00,CLR,,0.04,WeatherDisplay:10.37,2013-01-31 05:47:00,
2013-01-30 23:52:00,31.3,18.6,29.99,WSW,250,3.6,5.8,59,0.00,CLR,,0.04,WeatherDisplay:10.37,2013-01-31 05:52:00,
2013-01-30 23:57:00,31.3,18.6,29.99,NW,307,4.0,5.8,59,0.00,CLR,,0.04,WeatherDisplay:10.37,2013-01-31 05:57:00,